createdAt,value
2022-08-19T00:02:17.361Z,3.65
2022-08-19T00:04:47.706Z,3.89
2022-08-19T00:07:15.378Z,3.71
2022-08-19T00:09:43.054Z,3.68
2022-08-19T00:12:11.311Z,3.29
2022-08-19T00:14:39.266Z,3.43
2022-08-19T00:17:07.508Z,3.36
2022-08-19T00:19:36.121Z,3.14
2022-08-19T00:22:04.234Z,3.36
2022-08-19T00:24:32.988Z,3.11
2022-08-19T00:27:25.582Z,3.56
2022-08-19T00:29:52.510Z,3.17
2022-08-19T00:32:21.308Z,3.70
2022-08-19T00:34:48.982Z,3.38
2022-08-19T00:37:16.601Z,3.42
2022-08-19T00:39:44.264Z,3.39
2022-08-19T00:42:15.826Z,3.84
2022-08-19T00:44:44.142Z,3.74
2022-08-19T00:47:14.197Z,3.77
2022-08-19T00:49:52.216Z,3.66
2022-08-19T00:52:33.334Z,3.08
2022-08-19T00:55:02.386Z,3.38
2022-08-19T00:57:39.693Z,3.02
2022-08-19T01:00:11.764Z,3.07
2022-08-19T01:02:40.607Z,3.34
2022-08-19T01:05:11.809Z,3.24
2022-08-19T01:07:41.585Z,3.62
2022-08-19T01:10:12.658Z,3.14
2022-08-19T01:12:41.047Z,2.87
2022-08-19T01:15:10.857Z,3.11
2022-08-19T01:17:40.714Z,3.30
2022-08-19T01:20:12.073Z,3.23
2022-08-19T01:22:45.126Z,3.24
2022-08-19T01:25:15.245Z,3.26
2022-08-19T01:27:45.837Z,3.32
2022-08-19T01:30:15.906Z,3.00
2022-08-19T01:32:44.310Z,2.92
2022-08-19T01:35:13.540Z,3.16
2022-08-19T01:37:49.282Z,3.53
2022-08-19T01:40:17.715Z,3.21
2022-08-19T01:42:45.305Z,3.25
2022-08-19T01:45:12.881Z,3.07
2022-08-19T01:47:41.228Z,3.14
2022-08-19T01:50:11.031Z,3.37
2022-08-19T01:52:39.464Z,3.38
2022-08-19T01:55:09.013Z,3.21
2022-08-19T01:57:37.084Z,3.09
2022-08-19T02:00:08.311Z,3.15
2022-08-19T02:02:39.127Z,3.05
2022-08-19T02:05:10.671Z,3.01
2022-08-19T02:07:40.120Z,3.53
2022-08-19T02:10:16.577Z,3.33
2022-08-19T02:12:44.592Z,3.26
2022-08-19T02:15:12.349Z,3.45
2022-08-19T02:17:40.922Z,3.28
2022-08-19T02:20:09.527Z,3.45
2022-08-19T02:22:37.105Z,3.18
2022-08-19T02:25:06.201Z,3.60
2022-08-19T02:27:34.788Z,2.99
2022-08-19T02:30:04.847Z,3.29
2022-08-19T02:32:33.304Z,3.23
2022-08-19T02:35:02.732Z,3.53
2022-08-19T02:37:58.860Z,3.41
2022-08-19T02:40:26.660Z,3.39
2022-08-19T02:42:54.462Z,3.30
2022-08-19T02:45:22.352Z,3.15
2022-08-19T02:47:50.068Z,3.41
2022-08-19T02:50:17.696Z,3.59
2022-08-19T02:52:46.365Z,3.23
2022-08-19T02:55:14.021Z,3.40
2022-08-19T02:57:42.933Z,3.58
2022-08-19T03:00:13.576Z,3.75
2022-08-19T03:02:41.767Z,3.87
2022-08-19T03:05:10.950Z,3.56
2022-08-19T03:07:38.741Z,3.72
2022-08-19T03:10:06.767Z,3.14
2022-08-19T03:12:37.191Z,3.55
2022-08-19T03:15:09.001Z,3.43
2022-08-19T03:17:36.697Z,3.46
2022-08-19T03:20:05.019Z,3.57
2022-08-19T03:22:32.670Z,3.89
2022-08-19T03:25:00.558Z,3.73
2022-08-19T03:27:32.859Z,3.47
2022-08-19T03:30:03.583Z,4.14
2022-08-19T03:32:33.788Z,3.77
2022-08-19T03:35:01.422Z,3.66
2022-08-19T03:37:29.506Z,3.72
2022-08-19T03:39:57.265Z,3.89
2022-08-19T03:42:38.813Z,4.10
2022-08-19T03:45:13.557Z,3.93
2022-08-19T03:47:41.262Z,4.02
2022-08-19T03:50:10.043Z,3.54
2022-08-19T03:52:37.848Z,3.86
2022-08-19T03:55:05.704Z,4.08
2022-08-19T03:57:34.945Z,3.82
2022-08-19T04:00:04.092Z,3.88
2022-08-19T04:02:42.907Z,3.85
2022-08-19T04:05:28.494Z,3.96
2022-08-19T04:07:59.965Z,4.56
2022-08-19T04:10:29.178Z,4.80
2022-08-19T04:12:56.724Z,4.76
2022-08-19T04:15:24.337Z,4.64
2022-08-19T04:17:51.857Z,4.03
2022-08-19T04:20:19.501Z,4.03
2022-08-19T04:22:47.218Z,4.28
2022-08-19T04:25:14.962Z,3.58
2022-08-19T04:27:47.145Z,4.15
2022-08-19T04:30:15.109Z,4.11
2022-08-19T04:32:44.632Z,4.84
2022-08-19T04:35:17.536Z,5.02
2022-08-19T04:37:46.931Z,5.37
2022-08-19T04:40:33.006Z,5.34
2022-08-19T04:43:01.930Z,6.10
2022-08-19T04:45:29.538Z,6.67
2022-08-19T04:48:26.433Z,7.96
2022-08-19T04:50:58.655Z,7.72
2022-08-19T04:53:27.833Z,8.71
2022-08-19T04:56:00.076Z,8.43
2022-08-19T04:58:28.395Z,8.43
2022-08-19T05:00:56.103Z,9.12
2022-08-19T05:03:27.530Z,7.75
2022-08-19T05:05:59.366Z,7.91
2022-08-19T05:08:31.110Z,9.63
2022-08-19T05:10:59.449Z,9.32
2022-08-19T05:13:27.856Z,9.35
2022-08-19T05:15:57.409Z,9.06
2022-08-19T05:18:43.643Z,10.88
2022-08-19T05:21:31.787Z,12.99
2022-08-19T05:23:59.448Z,11.78
2022-08-19T05:26:27.300Z,12.02
2022-08-19T05:28:55.702Z,12.51
2022-08-19T05:31:23.321Z,12.79
2022-08-19T05:33:51.374Z,12.75
2022-08-19T05:36:20.858Z,12.77
2022-08-19T05:38:48.744Z,12.70
2022-08-19T05:41:18.226Z,12.74
2022-08-19T05:43:45.865Z,12.28
2022-08-19T05:46:20.189Z,13.00
2022-08-19T05:48:57.520Z,12.62
2022-08-19T05:51:29.011Z,12.55
2022-08-19T05:53:57.046Z,12.72
2022-08-19T05:56:24.715Z,13.84
2022-08-19T05:58:53.332Z,13.60
2022-08-19T06:01:21.444Z,14.48
2022-08-19T06:03:49.608Z,14.56
2022-08-19T06:06:18.018Z,14.72
2022-08-19T06:08:50.468Z,14.65
2022-08-19T06:11:19.708Z,14.46
2022-08-19T06:13:52.016Z,14.60
2022-08-19T06:16:28.734Z,15.54
2022-08-19T06:18:58.031Z,15.64
2022-08-19T06:21:28.276Z,15.98
2022-08-19T06:23:57.299Z,15.78
2022-08-19T06:26:27.473Z,14.99
2022-08-19T06:28:55.488Z,14.84
2022-08-19T06:31:28.365Z,14.90
2022-08-19T06:33:56.236Z,13.65
2022-08-19T06:36:30.997Z,13.36
2022-08-19T06:38:59.976Z,13.21
2022-08-19T06:41:28.578Z,13.47
2022-08-19T06:43:56.985Z,12.19
2022-08-19T06:46:25.704Z,11.15
2022-08-19T06:48:54.373Z,11.18
2022-08-19T06:51:23.324Z,11.37
2022-08-19T06:53:53.931Z,11.63
2022-08-19T06:56:32.058Z,12.30
2022-08-19T06:58:59.637Z,12.50
2022-08-19T07:01:27.361Z,13.13
2022-08-19T07:03:54.949Z,13.22
2022-08-19T07:09:11.827Z,13.76
2022-08-19T07:11:40.153Z,13.99
2022-08-19T07:14:07.744Z,13.96
2022-08-19T07:16:49.676Z,13.81
2022-08-19T07:19:18.841Z,14.68
2022-08-19T07:21:54.244Z,13.74
2022-08-19T07:24:26.972Z,14.84
2022-08-19T07:27:01.409Z,15.40
2022-08-19T07:29:34.346Z,14.68
2022-08-19T07:32:04.128Z,14.86
2022-08-19T07:34:35.439Z,14.72
2022-08-19T07:37:04.791Z,15.01
2022-08-19T07:39:34.322Z,15.46
2022-08-19T07:42:05.167Z,15.73
2022-08-19T07:44:32.954Z,15.39
2022-08-19T07:47:01.490Z,14.65
2022-08-19T07:49:29.684Z,15.22
2022-08-19T07:51:59.744Z,17.47
2022-08-19T07:54:28.529Z,16.97
2022-08-19T07:56:56.321Z,19.14
2022-08-19T07:59:51.106Z,20.63
2022-08-19T08:02:43.894Z,21.80
2022-08-19T08:05:40.628Z,22.87
2022-08-19T08:08:36.040Z,21.87
2022-08-19T08:11:30.207Z,21.02
2022-08-19T08:14:29.220Z,23.37
2022-08-19T08:17:31.071Z,22.29
2022-08-19T08:20:36.047Z,22.15
2022-08-19T08:23:28.797Z,22.01
2022-08-19T08:26:23.960Z,21.04
2022-08-19T08:28:52.830Z,21.78
2022-08-19T08:31:21.101Z,23.68
2022-08-19T08:33:48.925Z,22.28
2022-08-19T08:36:18.060Z,24.06
2022-08-19T08:38:49.094Z,22.31
2022-08-19T08:41:32.261Z,22.22
2022-08-19T08:44:00.037Z,22.53
2022-08-19T08:46:36.277Z,22.33
2022-08-19T08:49:13.032Z,21.42
2022-08-19T08:51:48.455Z,20.60
2022-08-19T08:54:31.914Z,21.58
2022-08-19T08:57:05.185Z,22.31
2022-08-19T08:59:37.320Z,23.92
2022-08-19T09:02:06.150Z,24.50
2022-08-19T09:04:35.948Z,25.53
2022-08-19T09:07:08.632Z,26.42
2022-08-19T09:09:48.195Z,24.15
2022-08-19T09:12:26.987Z,24.09
2022-08-19T09:15:02.204Z,24.95
2022-08-19T09:17:36.337Z,25.36
2022-08-19T09:20:09.713Z,23.99
2022-08-19T09:22:38.420Z,23.45
2022-08-19T09:25:08.278Z,23.89
2022-08-19T09:27:43.174Z,22.87
2022-08-19T09:30:14.459Z,22.78
2022-08-19T09:32:44.026Z,23.22
2022-08-19T09:35:13.505Z,23.82
2022-08-19T09:37:42.183Z,23.69
2022-08-19T09:40:11.843Z,23.11
2022-08-19T09:42:50.349Z,24.30
2022-08-19T09:45:22.969Z,24.92
2022-08-19T09:47:53.828Z,24.68
2022-08-19T09:50:23.849Z,24.17
2022-08-19T09:52:55.613Z,23.56
2022-08-19T09:55:31.247Z,25.71
2022-08-19T09:58:01.031Z,24.30
2022-08-19T10:00:28.752Z,23.09
2022-08-19T10:02:56.330Z,21.18
2022-08-19T10:05:43.205Z,21.37
2022-08-19T10:08:13.543Z,26.72
2022-08-19T10:10:46.391Z,25.76
2022-08-19T10:13:16.393Z,25.70
2022-08-19T10:15:45.257Z,24.80
2022-08-19T10:18:18.683Z,23.67
2022-08-19T10:20:51.459Z,23.70
2022-08-19T10:23:21.094Z,23.04
2022-08-19T10:25:49.878Z,26.75
2022-08-19T10:28:19.485Z,23.77
2022-08-19T10:30:48.507Z,22.25
2022-08-19T10:33:38.239Z,20.23
2022-08-19T10:36:05.605Z,19.65
2022-08-19T10:38:34.909Z,22.21
2022-08-19T10:41:19.232Z,22.75
2022-08-19T10:43:46.935Z,23.50
2022-08-19T10:46:16.641Z,25.67
2022-08-19T10:48:45.710Z,22.72
2022-08-19T10:51:32.086Z,20.94
2022-08-19T10:54:00.587Z,22.24
2022-08-19T10:56:47.949Z,23.01
2022-08-19T10:59:16.694Z,21.21
2022-08-19T11:01:45.727Z,24.49
2022-08-19T11:04:14.639Z,22.35
2022-08-19T11:06:44.291Z,23.02
2022-08-19T11:09:12.582Z,23.72
2022-08-19T11:11:41.828Z,24.43
2022-08-19T11:14:11.188Z,22.59
2022-08-19T11:16:40.097Z,23.90
2022-08-19T11:19:09.604Z,24.31
2022-08-19T11:21:40.025Z,25.38
2022-08-19T11:24:09.812Z,26.08
2022-08-19T11:26:38.965Z,23.20
2022-08-19T11:29:07.651Z,22.29
2022-08-19T11:31:37.130Z,20.91
2022-08-19T11:34:06.733Z,19.34
2022-08-19T11:36:35.417Z,18.34
2022-08-19T11:39:06.717Z,18.22
2022-08-19T11:41:35.899Z,16.59
2022-08-19T11:44:04.253Z,16.00
2022-08-19T11:46:32.206Z,16.98
2022-08-19T11:49:01.527Z,26.97
2022-08-19T11:51:29.958Z,24.01
2022-08-19T11:53:59.169Z,18.62
2022-08-19T11:56:28.353Z,16.90
2022-08-19T11:59:00.088Z,16.75
2022-08-19T12:01:27.778Z,17.55
2022-08-19T12:03:56.325Z,17.68
2022-08-19T12:06:35.206Z,17.84
2022-08-19T12:09:06.161Z,19.80
2022-08-19T12:11:34.373Z,19.88
2022-08-19T12:14:02.562Z,19.72
2022-08-19T12:16:33.708Z,18.98
2022-08-19T12:19:04.991Z,19.14
2022-08-19T12:21:34.538Z,20.81
2022-08-19T12:24:03.670Z,20.19
2022-08-19T12:26:32.491Z,20.36
2022-08-19T12:29:00.549Z,20.47
2022-08-19T12:31:29.094Z,21.93
2022-08-19T12:33:56.956Z,20.51
2022-08-19T12:36:25.816Z,19.37
2022-08-19T12:38:53.731Z,19.04
2022-08-19T12:41:23.157Z,19.92
2022-08-19T12:43:51.124Z,20.42
2022-08-19T12:46:22.317Z,19.42
2022-08-19T12:48:56.099Z,18.47
2022-08-19T12:51:23.879Z,18.17
2022-08-19T12:53:51.452Z,18.63
2022-08-19T12:56:22.970Z,18.47
2022-08-19T12:58:52.808Z,17.61
2022-08-19T13:01:23.032Z,16.87
2022-08-19T13:03:53.447Z,17.05
2022-08-19T13:06:22.408Z,17.67
2022-08-19T13:08:50.054Z,17.66
2022-08-19T13:11:19.464Z,16.81
2022-08-19T13:13:48.358Z,17.55
2022-08-19T13:16:16.304Z,17.10
2022-08-19T13:18:46.149Z,17.23
2022-08-19T13:21:14.649Z,15.88
2022-08-19T13:23:43.115Z,16.71
2022-08-19T13:26:12.590Z,17.58
2022-08-19T13:28:59.901Z,16.38
2022-08-19T13:31:48.601Z,15.86
2022-08-19T13:34:18.508Z,16.97
2022-08-19T13:36:46.336Z,17.02
2022-08-19T13:39:13.994Z,17.13
2022-08-19T13:41:48.947Z,15.79
2022-08-19T13:44:19.183Z,16.65
2022-08-19T13:46:49.763Z,17.30
2022-08-19T13:49:24.325Z,15.98
2022-08-19T13:51:52.320Z,14.26
2022-08-19T13:54:20.571Z,17.73
2022-08-19T13:56:49.443Z,17.17
2022-08-19T13:59:18.910Z,18.89
2022-08-19T14:01:47.350Z,17.98
2022-08-19T14:04:15.895Z,14.85
2022-08-19T14:06:44.249Z,13.59
2022-08-19T14:09:13.018Z,15.20
2022-08-19T14:11:41.429Z,15.51
2022-08-19T14:14:13.287Z,14.94
2022-08-19T14:16:44.096Z,14.45
2022-08-19T14:19:12.948Z,14.13
2022-08-19T14:21:42.938Z,13.93
2022-08-19T14:24:11.568Z,12.76
2022-08-19T14:26:40.269Z,14.70
2022-08-19T14:29:08.470Z,15.73
2022-08-19T14:31:36.638Z,15.12
2022-08-19T14:34:04.871Z,13.56
2022-08-19T14:36:39.144Z,14.41
2022-08-19T14:39:07.604Z,12.73
2022-08-19T14:41:36.181Z,12.79
2022-08-19T14:44:07.270Z,11.78
2022-08-19T14:46:35.940Z,11.99
2022-08-19T14:49:09.584Z,13.39
2022-08-19T14:51:38.101Z,13.51
2022-08-19T14:54:06.248Z,12.97
2022-08-19T14:56:34.557Z,11.55
2022-08-19T14:59:02.707Z,12.62
2022-08-19T15:01:30.977Z,13.83
2022-08-19T15:03:59.321Z,12.88
2022-08-19T15:06:28.956Z,12.85
2022-08-19T15:09:01.941Z,12.96
2022-08-19T15:11:33.861Z,12.28
2022-08-19T15:14:02.601Z,12.15
2022-08-19T15:16:30.798Z,12.56
2022-08-19T15:19:00.944Z,12.05
2022-08-19T15:21:30.743Z,14.03
2022-08-19T15:24:00.301Z,11.82
2022-08-19T15:26:32.531Z,9.60
2022-08-19T15:29:01.441Z,6.04
2022-08-19T15:31:29.489Z,4.06
2022-08-19T15:34:00.189Z,3.40
2022-08-19T15:36:28.277Z,2.71
2022-08-19T15:38:56.449Z,2.44
2022-08-19T15:41:30.456Z,2.45
2022-08-19T15:44:04.608Z,2.59
2022-08-19T15:46:35.057Z,2.33
2022-08-19T15:49:02.991Z,2.51
2022-08-19T15:51:31.962Z,2.18
2022-08-19T15:54:00.204Z,2.53
2022-08-19T15:56:57.836Z,2.86
2022-08-19T15:59:47.226Z,3.12
2022-08-19T16:02:37.034Z,3.40
2022-08-19T16:05:25.307Z,2.92
2022-08-19T16:07:53.000Z,4.14
2022-08-19T16:10:27.294Z,3.15
2022-08-19T16:12:57.214Z,3.92
2022-08-19T16:15:27.940Z,3.49
2022-08-19T16:17:57.660Z,3.26
2022-08-19T16:20:27.333Z,3.46
2022-08-19T16:22:57.504Z,3.17
2022-08-19T16:25:28.629Z,2.96
2022-08-19T16:28:07.859Z,3.01
2022-08-19T16:30:37.620Z,3.00
2022-08-19T16:33:05.585Z,3.54
2022-08-19T16:35:33.331Z,2.51
2022-08-19T16:38:02.053Z,2.87
2022-08-19T16:40:29.840Z,2.99
2022-08-19T16:42:57.573Z,3.12
2022-08-19T16:45:25.330Z,3.02
2022-08-19T16:47:53.593Z,2.88
2022-08-19T16:50:29.215Z,2.82
2022-08-19T16:53:07.530Z,2.69
2022-08-19T16:55:35.041Z,2.94
2022-08-19T16:58:04.398Z,2.77
2022-08-19T17:00:32.010Z,2.64
2022-08-19T17:03:08.659Z,2.60
2022-08-19T17:05:44.999Z,2.27
2022-08-19T17:08:12.707Z,2.95
2022-08-19T17:10:45.581Z,2.78
2022-08-19T17:13:24.978Z,2.84
2022-08-19T17:15:54.578Z,2.91
2022-08-19T17:18:22.812Z,2.50
2022-08-19T17:20:51.725Z,2.62
2022-08-19T17:23:42.904Z,2.85
2022-08-19T17:26:17.156Z,3.40
2022-08-19T17:28:49.625Z,3.37
2022-08-19T17:31:19.442Z,3.19
2022-08-19T17:33:48.777Z,3.15
2022-08-19T17:36:23.489Z,3.18
2022-08-19T17:38:52.048Z,3.09
2022-08-19T17:41:19.601Z,3.06
2022-08-19T17:43:47.230Z,3.24
2022-08-19T17:46:18.162Z,2.86
2022-08-19T17:48:52.775Z,3.74
2022-08-19T17:51:23.613Z,4.02
2022-08-19T17:53:53.903Z,3.70
2022-08-19T17:56:22.096Z,3.44
2022-08-19T17:58:59.544Z,3.00
2022-08-19T18:01:43.969Z,2.92
2022-08-19T18:04:18.659Z,2.96
2022-08-19T18:06:53.775Z,3.16
2022-08-19T18:09:26.982Z,3.13
2022-08-19T18:11:57.213Z,3.49
2022-08-19T18:14:33.012Z,3.26
2022-08-19T18:17:06.131Z,3.77
2022-08-19T18:19:41.501Z,3.64
2022-08-19T18:22:36.904Z,3.12
2022-08-19T18:25:10.005Z,3.37
2022-08-19T18:27:37.736Z,3.21
2022-08-19T18:30:07.223Z,3.45
2022-08-19T18:32:38.405Z,3.27
2022-08-19T18:35:11.702Z,3.96
2022-08-19T18:37:40.041Z,4.03
2022-08-19T18:40:28.034Z,3.60
2022-08-19T18:43:14.087Z,3.39
2022-08-19T18:46:01.746Z,2.94
2022-08-19T18:48:47.703Z,3.16
2022-08-19T18:51:17.562Z,3.25
2022-08-19T18:53:46.324Z,3.11
2022-08-19T18:56:16.146Z,2.70
2022-08-19T18:58:44.381Z,2.68
2022-08-19T19:01:15.323Z,2.82
2022-08-19T19:03:50.410Z,2.55
2022-08-19T19:06:23.002Z,2.34
2022-08-19T19:08:53.079Z,2.43
2022-08-19T19:11:26.297Z,2.54
2022-08-19T19:13:54.119Z,2.28
2022-08-19T19:16:24.493Z,2.66
2022-08-19T19:18:52.818Z,2.51
2022-08-19T19:21:23.054Z,2.38
2022-08-19T19:23:51.982Z,2.91
2022-08-19T19:26:21.600Z,2.44
2022-08-19T19:28:49.282Z,2.40
2022-08-19T19:31:26.545Z,3.88
2022-08-19T19:33:55.547Z,3.71
2022-08-19T19:36:23.316Z,2.69
2022-08-19T19:38:51.127Z,2.41
2022-08-19T19:41:24.697Z,2.54
2022-08-19T19:44:23.102Z,2.52
2022-08-19T19:46:45.295Z,2.67
2022-08-19T19:49:13.209Z,2.64
2022-08-19T19:51:43.476Z,2.73
2022-08-19T19:54:13.912Z,2.77
2022-08-19T19:56:45.006Z,3.74
2022-08-19T19:59:12.655Z,2.94
2022-08-19T20:01:46.222Z,2.59
2022-08-19T20:04:16.183Z,2.59
2022-08-19T20:06:44.835Z,2.64
2022-08-19T20:09:15.229Z,2.75
2022-08-19T20:11:54.288Z,2.92
2022-08-19T20:14:31.445Z,3.05
2022-08-19T20:16:59.877Z,2.83
2022-08-19T20:19:34.090Z,2.75
2022-08-19T20:22:02.022Z,2.95
2022-08-19T20:24:35.218Z,2.62
2022-08-19T20:27:04.904Z,2.58
2022-08-19T20:29:38.728Z,2.75
2022-08-19T20:32:10.056Z,2.69
2022-08-19T20:34:37.861Z,3.28
2022-08-19T20:37:05.543Z,4.07
2022-08-19T20:39:33.234Z,4.75
2022-08-19T20:42:00.895Z,6.11
2022-08-19T20:44:28.460Z,3.55
2022-08-19T20:46:59.429Z,3.26
2022-08-19T20:49:29.394Z,3.42
2022-08-19T20:51:57.918Z,3.89
2022-08-19T20:54:26.103Z,3.75
2022-08-19T20:56:54.389Z,4.10
2022-08-19T20:59:23.060Z,4.04
2022-08-19T21:01:54.217Z,4.55
2022-08-19T21:04:23.878Z,4.06
2022-08-19T21:06:51.463Z,4.21
2022-08-19T21:09:19.067Z,4.40
2022-08-19T21:11:46.911Z,4.37
2022-08-19T21:14:14.513Z,4.36
2022-08-19T21:16:42.364Z,4.59
2022-08-19T21:19:09.977Z,4.95
2022-08-19T21:21:38.610Z,5.38
2022-08-19T21:24:06.318Z,4.96
2022-08-19T21:26:33.976Z,5.23
2022-08-19T21:29:01.613Z,5.82
2022-08-19T21:31:29.226Z,6.84
2022-08-19T21:33:56.847Z,7.64
2022-08-19T21:36:24.604Z,7.75
2022-08-19T21:38:52.330Z,7.00
2022-08-19T21:41:20.068Z,6.56
2022-08-19T21:43:47.861Z,6.84
2022-08-19T21:46:16.287Z,6.99
2022-08-19T21:48:43.918Z,7.34
2022-08-19T21:51:11.545Z,7.27
2022-08-19T21:53:39.624Z,7.52
2022-08-19T21:56:07.422Z,7.69
2022-08-19T21:58:36.602Z,7.65
2022-08-19T22:01:07.711Z,7.67
2022-08-19T22:03:36.776Z,8.27
2022-08-19T22:06:05.344Z,8.10
2022-08-19T22:08:32.916Z,8.17
2022-08-19T22:11:01.363Z,8.45
2022-08-19T22:13:31.480Z,8.00
2022-08-19T22:15:59.268Z,7.58
2022-08-19T22:18:28.165Z,7.48
2022-08-19T22:20:56.745Z,7.99
2022-08-19T22:23:24.502Z,7.63
2022-08-19T22:25:52.226Z,7.72
2022-08-19T22:28:27.660Z,7.44
2022-08-19T22:30:56.174Z,7.84
2022-08-19T22:33:25.803Z,7.60
2022-08-19T22:35:53.906Z,7.82
2022-08-19T22:38:22.278Z,7.61
2022-08-19T22:40:51.420Z,7.82
2022-08-19T22:43:21.496Z,7.90
2022-08-19T22:45:50.469Z,7.47
2022-08-19T22:48:21.372Z,7.44
2022-08-19T22:51:08.907Z,7.47
2022-08-19T22:53:38.173Z,7.67
2022-08-19T22:56:13.070Z,7.42
2022-08-19T22:58:43.685Z,6.90
2022-08-19T23:01:14.749Z,6.79
2022-08-19T23:03:56.549Z,6.24
2022-08-19T23:06:25.240Z,5.58
2022-08-19T23:09:01.689Z,6.34
2022-08-19T23:11:35.608Z,6.34
2022-08-19T23:14:06.884Z,5.96
2022-08-19T23:16:36.484Z,5.96
2022-08-19T23:19:04.171Z,5.85
2022-08-19T23:21:31.689Z,7.36
2022-08-19T23:23:59.534Z,8.70
2022-08-19T23:26:27.125Z,6.84
2022-08-19T23:29:13.139Z,6.66
2022-08-19T23:31:40.785Z,6.28
2022-08-19T23:34:08.381Z,5.79
2022-08-19T23:36:36.753Z,6.22
2022-08-19T23:39:04.427Z,6.48
2022-08-19T23:41:32.181Z,6.09
2022-08-19T23:44:00.452Z,5.97
2022-08-19T23:46:28.687Z,6.19
2022-08-19T23:48:57.186Z,6.07
2022-08-19T23:51:26.986Z,6.40
2022-08-19T23:53:54.667Z,6.22
2022-08-19T23:56:22.649Z,6.67
2022-08-19T23:58:51.008Z,6.76
